Time;durP1;ratioP1;P1;durP2;ratioP2;P2;SDS_P1;SDS_P2;PMS_P1;PMS_P2;Temp;Humidity;BMP_temperature;BMP_pressure;BME280_temperature;BME280_humidity;BME280_pressure;Samples;Min_cycle;Max_cycle;Signal;HPM_P1;HPM_P2
2022/09/13 00:02:22;;;;;;;2.87;2.47;;;17.00;93.80;;;17.39;59.77;94786.00;6180749;23;20475;-55
2022/09/13 00:04:49;;;;;;;2.10;1.90;;;17.00;93.80;;;17.44;60.13;94793.44;6179439;23;20422;-56
2022/09/13 00:07:17;;;;;;;2.70;2.50;;;17.00;93.80;;;17.47;59.87;94792.25;6178031;23;20533;-57
2022/09/13 00:09:45;;;;;;;3.73;2.90;;;17.10;93.80;;;17.48;59.75;94792.06;6177612;23;20685;-55
2022/09/13 00:12:12;;;;;;;2.50;2.40;;;17.10;93.90;;;17.50;59.83;94789.22;6177786;23;20418;-54
2022/09/13 00:14:40;;;;;;;4.03;2.97;;;17.10;93.80;;;17.50;59.90;94783.91;6177671;23;20453;-57
2022/09/13 00:17:07;;;;;;;3.40;3.10;;;17.10;93.90;;;17.50;59.68;94782.06;6178192;23;20406;-54
2022/09/13 00:19:34;;;;;;;3.30;3.00;;;17.10;94.00;;;17.53;59.84;94780.88;6177256;23;20433;-57
2022/09/13 00:22:01;;;;;;;3.13;2.83;;;17.10;94.10;;;17.54;60.06;94775.38;6178052;23;20456;-56
2022/09/13 00:24:29;;;;;;;3.73;2.83;;;17.10;94.10;;;17.56;60.00;94770.69;6177469;23;20501;-57
2022/09/13 00:26:57;;;;;;;3.30;3.00;;;17.20;94.10;;;17.58;59.84;94767.84;6177282;23;20405;-57
2022/09/13 00:29:24;;;;;;;3.70;3.40;;;17.20;94.10;;;17.59;60.35;94771.34;6177445;23;20448;-53
2022/09/13 00:31:52;;;;;;;3.20;3.00;;;17.20;94.20;;;17.61;59.63;94762.16;6178072;23;20436;-53
2022/09/13 00:34:19;;;;;;;3.10;2.80;;;17.20;94.10;;;17.63;60.09;94759.31;6177559;23;20859;-57
2022/09/13 00:36:46;;;;;;;3.07;2.87;;;17.20;94.20;;;17.64;60.00;94767.09;6177858;23;20414;-56
2022/09/13 00:39:13;;;;;;;3.30;3.00;;;17.30;94.30;;;17.64;59.92;94763.63;6177466;23;20421;-57
2022/09/13 00:41:40;;;;;;;3.30;3.00;;;17.30;94.10;;;17.64;59.67;94761.78;6177851;23;20409;-54
2022/09/13 00:44:52;;;;;;;6.03;2.83;;;17.20;94.10;;;17.65;59.87;94765.28;6177342;23;20437;-57
2022/09/13 00:47:22;;;;;;;10.07;3.77;;;17.20;94.20;;;17.62;59.90;94763.00;6177342;23;20402;-55
2022/09/13 00:49:49;;;;;;;2.77;2.57;;;17.30;94.40;;;17.64;60.05;94760.97;6176893;23;20421;-55
2022/09/13 00:52:18;;;;;;;5.80;3.00;;;17.30;94.40;;;17.63;59.78;94757.47;6177510;23;20461;-57
2022/09/13 00:54:48;;;;;;;3.23;3.03;;;17.30;94.40;;;17.63;60.08;94760.16;6177094;23;20568;-55
2022/09/13 00:57:15;;;;;;;2.93;2.30;;;17.20;94.30;;;17.65;59.92;94757.31;6178946;23;20402;-56
2022/09/13 00:59:46;;;;;;;4.77;3.10;;;17.20;94.50;;;17.66;60.39;94754.44;6177124;23;20417;-56
2022/09/13 01:02:15;;;;;;;3.00;2.80;;;17.30;94.50;;;17.67;59.87;94760.59;6177147;23;20394;-55
2022/09/13 01:04:42;;;;;;;4.33;3.00;;;17.30;94.50;;;17.68;60.36;94751.59;6177262;23;20783;-57
2022/09/13 01:07:11;;;;;;;3.23;3.03;;;17.30;94.60;;;17.71;60.41;94751.22;6176940;23;20409;-55
2022/09/13 01:09:41;;;;;;;3.33;3.00;;;17.30;94.60;;;17.72;60.14;94751.03;6177264;23;20421;-56
2022/09/13 01:12:13;;;;;;;3.30;2.80;;;17.30;94.60;;;17.73;60.09;94749.19;6177361;23;20491;-54
2022/09/13 01:14:40;;;;;;;3.63;3.40;;;17.30;94.60;;;17.74;60.17;94756.19;6177482;23;20449;-55
2022/09/13 01:17:08;;;;;;;2.90;2.60;;;17.40;94.60;;;17.74;59.76;94756.19;6177202;23;20406;-54
2022/09/13 01:19:36;;;;;;;8.23;3.40;;;17.40;94.60;;;17.73;59.93;94749.19;6176738;23;20422;-54
2022/09/13 01:22:37;;;;;;;3.43;3.17;;;17.40;94.60;;;17.73;60.46;94755.34;6176631;23;21029;-58
2022/09/13 01:25:43;;;;;;;4.10;3.80;;;17.40;94.70;;;17.74;60.26;94745.53;6177219;23;20807;-57
2022/09/13 01:28:22;;;;;;;3.20;3.00;;;17.40;94.70;;;17.73;59.95;94746.53;6073723;23;20898;-54
2022/09/13 01:30:53;;;;;;;3.70;3.40;;;17.30;94.60;;;17.74;59.89;94745.53;6177088;23;20456;-53
2022/09/13 01:33:35;;;;;;;4.27;3.20;;;17.40;94.70;;;17.74;59.95;94741.03;6176935;23;20448;-57
2022/09/13 01:36:16;;;;;;;2.50;2.40;;;17.40;94.80;;;17.76;60.41;94748.81;6176680;23;20437;-54
2022/09/13 01:38:53;;;;;;;8.53;3.47;;;17.40;94.70;;;17.76;60.24;94743.50;6176574;23;20444;-56
2022/09/13 01:41:33;;;;;;;3.73;3.33;;;17.40;94.70;;;17.74;59.81;94742.88;6176948;23;20401;-57
2022/09/13 01:44:07;;;;;;;4.10;3.33;;;17.40;94.70;;;17.72;60.06;94742.22;6177602;23;20984;-53
2022/09/13 01:46:39;;;;;;;3.10;2.90;;;17.30;94.60;;;17.70;60.24;94745.06;6178042;23;20463;-56
2022/09/13 01:49:13;;;;;;;5.30;3.70;;;17.30;94.80;;;17.67;60.16;94745.44;6176317;23;20425;-56
2022/09/13 01:51:47;;;;;;;3.50;3.30;;;17.30;94.70;;;17.65;60.29;94736.03;6176504;23;20768;-55
2022/09/13 01:54:18;;;;;;;3.67;3.47;;;17.30;94.80;;;17.62;60.36;94736.41;6176575;23;20476;-57
2022/09/13 01:56:55;;;;;;;3.50;3.20;;;17.30;94.80;;;17.59;60.39;94736.75;6177020;23;20791;-56
2022/09/13 01:59:26;;;;;;;2.93;2.73;;;17.20;94.90;;;17.53;60.50;94733.81;6176402;23;20429;-55
2022/09/13 02:01:56;;;;;;;4.90;3.97;;;17.20;94.90;;;17.51;60.21;94730.53;6176779;23;20452;-53
2022/09/13 02:04:25;;;;;;;4.90;2.90;;;17.20;95.00;;;17.47;60.81;94733.75;6177006;23;20426;-55
2022/09/13 02:06:58;;;;;;;4.80;3.00;;;17.10;95.10;;;17.42;60.90;94730.84;6176166;23;20401;-57
2022/09/13 02:09:26;;;;;;;3.13;2.93;;;17.10;95.20;;;17.37;60.70;94731.38;6176621;23;20426;-55
2022/09/13 02:11:56;;;;;;;5.07;3.40;;;17.00;95.20;;;17.34;60.91;94729.09;6176348;23;20452;-55
2022/09/13 02:14:27;;;;;;;8.37;3.70;;;17.00;95.20;;;17.31;60.79;94732.13;6177176;23;20425;-57
2022/09/13 02:16:57;;;;;;;3.63;3.43;;;17.00;95.30;;;17.29;61.18;94734.13;6176357;23;20902;-56
2022/09/13 02:19:27;;;;;;;8.07;3.00;;;16.90;95.30;;;17.26;61.11;94734.50;6176949;23;20496;-56
2022/09/13 02:21:56;;;;;;;4.93;3.70;;;16.90;95.40;;;17.20;61.17;94730.75;6176327;23;20917;-57
2022/09/13 02:24:28;;;;;;;8.30;3.77;;;16.90;95.50;;;17.16;60.91;94732.13;6176270;23;20491;-57
2022/09/13 02:26:55;;;;;;;3.67;3.27;;;16.80;95.50;;;17.12;61.30;94725.56;6176309;23;20479;-54
2022/09/13 02:29:24;;;;;;;5.67;3.33;;;16.80;95.60;;;17.08;61.10;94722.41;6176434;23;20887;-56
2022/09/13 02:31:55;;;;;;;3.23;3.03;;;16.70;95.50;;;17.05;61.28;94725.44;6176996;23;20424;-56
2022/09/13 02:34:24;;;;;;;3.73;3.43;;;16.70;95.70;;;17.02;60.98;94731.97;6176019;23;20822;-56
2022/09/13 02:36:52;;;;;;;6.30;4.37;;;16.70;95.70;;;16.99;61.34;94732.31;6176695;23;20405;-55
2022/09/13 02:39:22;;;;;;;5.20;3.13;;;16.70;95.90;;;16.98;61.58;94735.16;6176539;23;20421;-57
2022/09/13 02:41:53;;;;;;;4.20;3.43;;;16.60;96.20;;;16.96;61.33;94732.69;6176443;23;20402;-54
2022/09/13 02:44:24;;;;;;;4.00;3.70;;;16.60;95.90;;;16.97;61.45;94733.50;6176504;23;20422;-52
2022/09/13 02:47:03;;;;;;;3.77;3.57;;;16.60;95.90;;;16.97;61.40;94720.22;6176870;23;20471;-57
2022/09/13 02:49:34;;;;;;;3.67;3.37;;;16.60;95.90;;;16.96;61.36;94732.69;6176573;23;20421;-55
2022/09/13 02:52:07;;;;;;;4.27;3.07;;;16.60;95.90;;;16.95;61.60;94724.91;6176523;23;20794;-56
2022/09/13 02:54:38;;;;;;;4.50;3.00;;;16.60;95.90;;;16.93;61.74;94734.88;6176304;23;20421;-56
2022/09/13 02:57:08;;;;;;;2.93;2.73;;;16.60;96.10;;;16.92;61.88;94735.91;6176668;23;20961;-57
2022/09/13 02:59:35;;;;;;;4.30;3.43;;;16.60;96.10;;;16.90;61.41;94730.75;6176475;23;21026;-56
2022/09/13 03:02:05;;;;;;;2.80;2.60;;;16.60;95.90;;;16.87;61.38;94736.44;6176664;23;20420;-56
2022/09/13 03:04:33;;;;;;;3.23;2.90;;;16.50;96.00;;;16.87;61.48;94736.44;6176368;23;20422;-57
2022/09/13 03:07:03;;;;;;;3.13;2.87;;;16.50;96.00;;;16.85;61.41;94733.09;6176573;23;20795;-55
2022/09/13 03:09:30;;;;;;;3.17;2.90;;;16.50;95.90;;;16.87;61.23;94732.94;6176756;23;20467;-57
2022/09/13 03:12:17;;;;;;;5.90;3.23;;;16.50;96.00;;;16.85;61.51;94736.59;6176541;23;20467;-54
2022/09/13 03:14:49;;;;;;;4.27;2.97;;;16.50;96.00;;;16.87;61.63;94733.78;6175972;23;20491;-53
2022/09/13 03:17:32;;;;;;;3.53;2.73;;;16.50;96.00;;;16.87;61.62;94730.28;6176422;23;20806;-56
2022/09/13 03:20:10;;;;;;;3.70;3.40;;;16.50;96.00;;;16.88;61.32;94729.28;6176631;23;20421;-57
2022/09/13 03:23:04;;;;;;;3.00;2.80;;;16.50;96.00;;;16.88;61.38;94734.59;6178332;23;20389;-56
2022/09/13 03:26:06;;;;;;;11.13;3.60;;;16.60;96.00;;;16.85;61.54;94731.28;6177940;23;20441;-55
2022/09/13 03:28:39;;;;;;;5.80;3.40;;;16.50;95.90;;;16.83;61.41;94727.16;6174657;23;20429;-56
2022/09/13 03:31:10;;;;;;;2.97;2.77;;;16.50;95.90;;;16.85;61.33;94730.44;6177857;23;20409;-56
2022/09/13 03:33:44;;;;;;;5.47;3.57;;;16.50;95.90;;;16.86;61.51;94729.47;6178639;23;20422;-56
2022/09/13 03:36:13;;;;;;;3.27;3.07;;;16.50;96.00;;;16.85;61.06;94731.28;6177748;23;20436;-57
2022/09/13 03:38:42;;;;;;;2.47;2.27;;;16.50;95.80;;;16.85;61.67;94731.28;6177986;23;20421;-54
2022/09/13 03:41:11;;;;;;;3.10;2.90;;;16.50;96.10;;;16.84;61.18;94731.47;6177498;23;20437;-56
2022/09/13 03:43:42;;;;;;;7.40;3.17;;;16.50;95.90;;;16.85;61.06;94739.25;6177850;23;21025;-57
2022/09/13 03:46:11;;;;;;;3.67;2.60;;;16.50;95.90;;;16.86;61.23;94734.78;6178081;23;20402;-55
2022/09/13 03:48:40;;;;;;;3.17;2.87;;;16.50;96.00;;;16.87;61.11;94730.28;6177840;23;20462;-56
2022/09/13 03:51:08;;;;;;;3.33;3.13;;;16.50;95.90;;;16.85;61.10;94738.41;6177666;23;20915;-55
2022/09/13 03:53:39;;;;;;;3.70;3.50;;;16.50;95.80;;;16.84;61.39;94740.25;6177527;23;20413;-53
2022/09/13 03:56:13;;;;;;;6.93;3.80;;;16.50;95.90;;;16.83;61.21;94735.94;6178052;23;20433;-57
2022/09/13 03:58:40;;;;;;;3.60;3.13;;;16.50;95.90;;;16.83;61.32;94738.59;6177466;23;20496;-56
2022/09/13 04:01:09;;;;;;;5.70;2.90;;;16.50;96.10;;;16.87;61.60;94748.88;6177951;23;20401;-57
2022/09/13 04:03:36;;;;;;;4.87;3.70;;;16.50;96.20;;;16.88;61.09;94735.41;6177652;23;20456;-55
2022/09/13 04:06:05;;;;;;;4.60;2.97;;;16.50;96.00;;;16.90;61.17;94744.03;6177653;23;20459;-55
2022/09/13 04:08:33;;;;;;;3.83;3.53;;;16.50;96.00;;;16.93;61.15;94737.53;6177763;23;20422;-56
2022/09/13 04:11:00;;;;;;;3.50;3.07;;;16.50;95.80;;;16.92;60.57;94741.22;6177676;23;20461;-56
2022/09/13 04:13:28;;;;;;;3.63;3.33;;;16.50;95.80;;;16.91;61.05;94743.03;6177048;23;20398;-54
2022/09/13 04:15:55;;;;;;;3.23;2.93;;;16.50;95.80;;;16.91;60.63;94736.91;6177047;23;20449;-56
2022/09/13 04:18:23;;;;;;;3.23;2.83;;;16.60;95.80;;;16.92;60.76;94735.91;6177577;23;20477;-55
2022/09/13 04:20:54;;;;;;;6.20;3.47;;;16.50;95.80;;;16.92;61.06;94742.03;6177857;23;20484;-56
2022/09/13 04:23:22;;;;;;;5.93;3.73;;;16.50;95.80;;;16.93;60.93;94742.84;6177753;23;20405;-55
2022/09/13 04:25:50;;;;;;;4.97;4.00;;;16.50;95.70;;;16.91;60.82;94748.34;6177173;23;20480;-56
2022/09/13 04:28:18;;;;;;;3.10;2.80;;;16.60;95.80;;;16.91;61.03;94750.19;6176775;23;20404;-55
2022/09/13 04:30:45;;;;;;;3.33;3.00;;;16.60;95.80;;;16.91;60.75;94742.22;6177074;23;20551;-59
2022/09/13 04:33:12;;;;;;;3.13;2.80;;;16.60;95.70;;;16.88;60.86;94751.34;6175903;23;20941;-58
2022/09/13 04:35:39;;;;;;;3.10;2.90;;;16.60;95.70;;;16.88;60.94;94751.34;6176800;23;20504;-56
2022/09/13 04:38:07;;;;;;;5.40;2.77;;;16.50;95.60;;;16.88;60.86;94761.16;6176531;23;20402;-56
2022/09/13 04:40:37;;;;;;;8.50;3.53;;;16.60;95.60;;;16.87;60.44;94764.81;6176762;23;20426;-57
2022/09/13 04:43:05;;;;;;;2.97;2.77;;;16.50;95.60;;;16.87;60.64;94767.47;6175462;23;20831;-55
2022/09/13 04:45:32;;;;;;;3.07;2.77;;;16.50;95.60;;;16.87;60.57;94765.66;6175476;23;21016;-56
2022/09/13 04:47:59;;;;;;;6.63;2.83;;;16.50;95.50;;;16.87;60.37;94765.66;6176756;23;20480;-56
2022/09/13 04:50:26;;;;;;;4.47;3.50;;;16.50;95.50;;;16.88;60.49;94764.63;6176541;23;20421;-56
2022/09/13 04:52:55;;;;;;;4.03;3.10;;;16.60;95.50;;;16.89;60.37;94765.47;6176214;23;20867;-57
2022/09/13 04:55:24;;;;;;;6.00;2.87;;;16.50;95.50;;;16.90;60.46;94773.28;6176036;23;20753;-57
2022/09/13 04:57:55;;;;;;;5.57;3.40;;;16.60;95.50;;;16.91;60.43;94776.75;6177075;23;20405;-56
2022/09/13 05:00:23;;;;;;;8.20;3.63;;;16.50;95.40;;;16.91;60.25;94774.91;6176494;23;20422;-57
2022/09/13 05:02:50;;;;;;;12.93;3.30;;;16.60;95.40;;;16.94;60.47;94774.53;6177210;23;20410;-58
2022/09/13 05:05:17;;;;;;;6.90;3.73;;;16.60;95.40;;;17.01;60.42;94779.97;6176159;23;20824;-56
2022/09/13 05:07:44;;;;;;;9.73;3.10;;;16.60;95.40;;;17.07;60.01;94776.59;6177416;23;20413;-55
2022/09/13 05:10:11;;;;;;;13.77;3.43;;;16.70;95.30;;;17.14;60.09;94776.69;6176069;23;20425;-56
2022/09/13 05:12:39;;;;;;;4.73;2.93;;;16.80;95.20;;;17.27;60.22;94778.69;6175778;23;20436;-57
2022/09/13 05:15:09;;;;;;;5.17;3.47;;;16.90;95.30;;;17.42;59.67;94776.03;6176704;23;20426;-58
2022/09/13 05:17:36;;;;;;;3.20;3.00;;;17.00;95.20;;;17.52;59.55;94777.41;6177345;23;20456;-56
2022/09/13 05:20:04;;;;;;;4.70;3.90;;;17.20;95.10;;;17.61;59.45;94771.97;6176760;23;20476;-56
2022/09/13 05:22:31;;;;;;;4.90;3.80;;;17.20;95.00;;;17.68;59.16;94773.69;6176525;23;20401;-58
2022/09/13 05:24:58;;;;;;;6.93;4.10;;;17.30;94.90;;;17.74;59.22;94772.16;6177102;23;20765;-54
2022/09/13 05:27:26;;;;;;;11.30;4.50;;;17.40;94.90;;;17.79;59.49;94779.56;6176990;23;20808;-55
2022/09/13 05:29:53;;;;;;;5.10;3.23;;;17.40;94.90;;;17.84;59.04;94783.28;6177067;23;20425;-56
2022/09/13 05:32:21;;;;;;;4.40;3.03;;;17.40;94.80;;;17.87;59.18;94777.59;6175596;23;20409;-56
2022/09/13 05:34:48;;;;;;;4.40;2.97;;;17.50;94.90;;;17.95;59.03;94783.88;6176742;23;20444;-54
2022/09/13 05:37:16;;;;;;;3.87;2.87;;;17.50;94.90;;;18.01;59.02;94777.78;6176842;23;20444;-55
2022/09/13 05:39:43;;;;;;;4.40;2.57;;;17.60;94.90;;;18.07;59.30;94793.00;6176967;23;20421;-57
2022/09/13 05:42:10;;;;;;;8.27;2.80;;;17.70;94.80;;;18.12;59.26;94784.47;6176898;23;20791;-56
2022/09/13 05:44:37;;;;;;;3.07;2.87;;;17.80;94.60;;;18.16;58.70;94775.09;6176436;23;20429;-56
2022/09/13 05:47:05;;;;;;;3.00;2.80;;;17.80;94.40;;;18.19;58.37;94783.50;6176840;23;20416;-55
2022/09/13 05:49:34;;;;;;;4.43;3.50;;;17.80;94.30;;;18.28;58.73;94787.72;6177386;23;20427;-57
2022/09/13 05:52:02;;;;;;;6.70;3.10;;;17.90;94.40;;;18.43;58.69;94781.47;6177530;23;20410;-55
2022/09/13 05:54:29;;;;;;;4.73;3.57;;;18.00;94.40;;;18.60;58.15;94782.03;6177124;23;20532;-54
2022/09/13 05:56:57;;;;;;;9.43;3.23;;;18.10;94.30;;;18.78;57.66;94774.41;6177091;23;20836;-57
2022/09/13 05:59:24;;;;;;;3.30;3.10;;;18.30;94.10;;;18.95;57.45;94780.31;6176285;23;20452;-55
2022/09/13 06:01:51;;;;;;;4.60;2.43;;;18.40;94.00;;;19.12;57.07;94777.38;6176283;23;20981;-56
2022/09/13 06:04:19;;;;;;;3.60;3.30;;;18.60;93.80;;;19.29;57.07;94783.22;6176400;23;20421;-56
2022/09/13 06:06:47;;;;;;;3.60;2.93;;;18.70;93.60;;;19.47;57.01;94782.69;6176600;23;20405;-55
2022/09/13 06:09:14;;;;;;;3.53;3.23;;;18.90;93.30;;;19.65;56.34;94795.50;6176470;23;20671;-54
2022/09/13 06:11:41;;;;;;;3.30;2.60;;;19.10;93.20;;;19.79;56.28;94791.09;6176726;23;20409;-55
2022/09/13 06:14:09;;;;;;;6.67;3.20;;;19.20;92.80;;;19.93;56.20;94791.97;6176087;23;20429;-55
2022/09/13 06:16:36;;;;;;;3.00;2.80;;;19.30;92.90;;;20.08;55.72;94789.13;6176309;23;20484;-55
2022/09/13 06:19:04;;;;;;;5.33;2.93;;;19.50;92.60;;;20.20;55.56;94787.50;6176715;23;20484;-57
2022/09/13 06:21:31;;;;;;;4.70;2.90;;;19.60;92.40;;;20.38;54.69;94792.28;6176564;23;20405;-56
2022/09/13 06:24:00;;;;;;;2.80;2.47;;;19.80;91.60;;;20.58;53.66;94797.66;6176568;23;20429;-57
2022/09/13 06:26:27;;;;;;;2.63;2.30;;;20.00;90.70;;;20.76;53.38;94797.91;6176542;23;20929;-55
2022/09/13 06:28:56;;;;;;;2.50;2.30;;;20.20;90.80;;;21.00;53.19;94802.88;6176625;23;20422;-56
2022/09/13 06:31:24;;;;;;;2.60;2.37;;;20.40;90.50;;;21.22;51.90;94792.75;6176157;23;20918;-57
2022/09/13 06:33:57;;;;;;;11.33;2.53;;;20.60;88.60;;;21.43;51.99;94802.41;6175801;23;20445;-54
2022/09/13 06:36:24;;;;;;;7.90;2.10;;;20.80;88.80;;;21.59;50.50;94801.97;6176862;23;20437;-58
2022/09/13 06:38:51;;;;;;;3.83;2.43;;;21.00;86.40;;;21.75;50.31;94800.69;6176632;23;20945;-54
2022/09/13 06:41:22;;;;;;;2.33;2.23;;;21.20;85.50;;;21.92;50.85;94795.69;6175894;23;20981;-56
2022/09/13 06:43:53;;;;;;;1.70;1.60;;;21.30;85.60;;;22.05;49.42;94804.72;6175997;23;20796;-58
2022/09/13 06:46:20;;;;;;;4.00;2.10;;;21.50;83.20;;;22.14;50.07;94806.94;6176711;23;20436;-54
2022/09/13 06:48:48;;;;;;;3.03;2.60;;;21.60;84.40;;;22.27;49.30;94807.91;6176457;23;20955;-58
2022/09/13 06:51:16;;;;;;;4.73;2.43;;;21.70;82.20;;;22.41;49.43;94809.50;6176288;23;20410;-57
2022/09/13 06:53:44;;;;;;;3.10;2.03;;;21.80;83.00;;;22.58;49.64;94815.16;6176475;23;20425;-57
2022/09/13 06:56:12;;;;;;;2.30;2.10;;;22.00;82.10;;;22.76;49.31;94806.41;6177180;23;20479;-59
2022/09/13 06:58:42;;;;;;;2.47;2.27;;;22.20;82.10;;;23.02;48.08;94809.91;6178508;23;20520;-57
2022/09/13 07:01:12;;;;;;;2.47;1.93;;;22.40;80.20;;;23.24;48.33;94808.50;6178567;23;20459;-55
2022/09/13 07:03:40;;;;;;;4.70;2.27;;;22.60;78.60;;;23.42;48.20;94818.47;6178432;23;20744;-57
2022/09/13 07:06:10;;;;;;;3.43;2.13;;;22.80;78.40;;;23.67;48.00;94817.59;6178091;23;20409;-58
2022/09/13 07:08:37;;;;;;;2.40;2.20;;;23.00;78.00;;;23.92;46.13;94814.88;6177566;23;20457;-57
2022/09/13 07:11:04;;;;;;;4.57;2.73;;;23.30;76.20;;;24.17;46.63;94828.22;6177886;23;20442;-57
2022/09/13 07:13:32;;;;;;;2.20;2.03;;;23.60;75.30;;;24.43;46.54;94830.78;6177831;23;20402;-54
2022/09/13 07:16:03;;;;;;;2.17;1.87;;;23.80;75.10;;;24.69;44.93;94824.22;6177523;23;20409;-54
2022/09/13 07:18:31;;;;;;;5.70;2.33;;;24.10;71.00;;;24.77;42.70;94815.00;6177572;23;20674;-58
2022/09/13 07:21:03;;;;;;;2.80;1.90;;;24.10;67.60;;;24.89;43.26;94829.31;6177900;23;20401;-56
2022/09/13 07:23:31;;;;;;;2.40;2.20;;;24.30;69.30;;;25.11;44.24;94823.41;6177802;23;20405;-57
2022/09/13 07:26:03;;;;;;;2.50;1.93;;;24.40;69.00;;;25.15;43.32;94832.66;6178457;23;20405;-56
2022/09/13 07:28:31;;;;;;;2.73;2.30;;;24.50;66.60;;;25.19;41.58;94820.34;6177993;23;20433;-56
2022/09/13 07:31:07;;;;;;;2.83;2.30;;;24.60;63.60;;;25.32;41.09;94828.25;6177976;23;20405;-57
2022/09/13 07:33:35;;;;;;;2.20;2.10;;;24.70;63.80;;;25.59;43.21;94822.38;6177610;23;20424;-57
2022/09/13 07:36:05;;;;;;;2.50;2.30;;;24.90;66.30;;;26.01;43.44;94814.19;6175863;23;20439;-57
2022/09/13 07:38:34;;;;;;;4.00;2.30;;;25.30;67.40;;;26.47;42.97;94831.25;6176129;23;20476;-55
2022/09/13 07:41:01;;;;;;;6.20;2.00;;;25.70;66.10;;;26.88;41.89;94822.31;6175674;23;20402;-57
2022/09/13 07:43:28;;;;;;;4.97;2.40;;;26.20;63.80;;;27.22;40.22;94817.78;6176467;23;20471;-58
2022/09/13 07:45:58;;;;;;;5.53;2.43;;;26.60;60.50;;;27.55;40.27;94826.94;6176079;23;20412;-55
2022/09/13 07:48:27;;;;;;;3.50;2.00;;;27.00;59.90;;;27.84;40.59;94833.03;6175223;23;20443;-56
2022/09/13 07:50:59;;;;;;;2.03;1.87;;;27.40;60.30;;;28.05;39.58;94833.34;6176131;23;20406;-53
2022/09/13 07:53:26;;;;;;;3.40;2.47;;;27.70;59.60;;;28.08;39.21;94836.34;6175775;23;20480;-58
2022/09/13 07:55:54;;;;;;;2.30;2.13;;;27.80;58.30;;;27.94;39.43;94832.34;6176226;23;20978;-57
2022/09/13 07:58:21;;;;;;;3.30;1.90;;;27.70;57.10;;;28.05;39.07;94841.44;6176600;23;20467;-56
2022/09/13 08:00:48;;;;;;;2.30;2.20;;;27.70;57.70;;;28.32;38.96;94829.88;6175818;23;20404;-57
2022/09/13 08:03:16;;;;;;;2.00;1.90;;;27.90;56.80;;;28.69;37.46;94840.06;6176607;23;20444;-58
2022/09/13 08:05:44;;;;;;;2.07;1.97;;;28.20;55.20;;;29.02;37.34;94832.81;6176085;23;20401;-54
2022/09/13 08:08:11;;;;;;;3.30;1.93;;;28.50;55.40;;;29.41;36.95;94827.22;6175258;23;20498;-57
2022/09/13 08:10:39;;;;;;;3.63;1.87;;;28.90;54.40;;;29.81;37.23;94823.19;6176183;23;20170;-53
2022/09/13 08:13:06;;;;;;;8.07;1.90;;;29.30;53.90;;;30.16;33.01;94825.28;6175520;23;20228;-57
2022/09/13 08:15:33;;;;;;;2.10;2.00;;;29.70;48.80;;;30.31;34.27;94824.50;6175704;23;20189;-57
2022/09/13 08:18:00;;;;;;;5.53;1.70;;;30.00;50.00;;;30.42;32.90;94832.72;6175151;23;20197;-55
2022/09/13 08:20:28;;;;;;;7.73;1.67;;;30.20;47.40;;;30.50;34.31;94826.78;6175409;23;20304;-55
2022/09/13 08:22:56;;;;;;;2.35;1.83;;;30.40;48.80;;;30.71;32.50;94822.22;6175625;23;20177;-57
2022/09/13 08:25:25;;;;;;;1.80;1.70;;;30.60;47.30;;;30.85;34.12;94819.81;6175497;23;20252;-56
2022/09/13 08:27:52;;;;;;;10.48;2.42;;;30.70;48.40;;;30.94;33.71;94823.63;6175842;23;20645;-57
2022/09/13 08:30:19;;;;;;;2.30;2.03;;;30.80;48.00;;;31.04;33.08;94818.22;6175722;23;20216;-54
2022/09/13 08:32:50;;;;;;;2.97;1.63;;;30.90;47.40;;;31.18;33.04;94823.94;6175385;23;20501;-57
2022/09/13 08:35:17;;;;;;;2.65;1.50;;;30.90;47.60;;;31.02;32.49;94825.84;6126281;23;1177329;-55
2022/09/13 08:37:44;;;;;;;2.13;2.03;;;30.80;46.50;;;30.54;32.42;94819.75;6177142;23;20789;-57
2022/09/13 08:40:13;;;;;;;1.60;1.50;;;30.40;45.40;;;30.15;32.50;94822.81;6176731;23;20209;-54
2022/09/13 08:42:49;;;;;;;2.37;1.60;;;30.00;46.30;;;30.06;32.28;94808.94;6176786;23;20174;-58
2022/09/13 08:45:17;;;;;;;1.40;1.30;;;29.80;46.00;;;30.13;32.37;94803.25;6176545;23;20435;-55
2022/09/13 08:47:47;;;;;;;1.70;1.60;;;29.70;45.90;;;30.20;31.53;94810.06;6177084;23;20174;-56
2022/09/13 08:50:19;;;;;;;6.53;1.57;;;29.70;44.90;;;30.19;30.63;94796.78;6177023;23;20252;-55
2022/09/13 08:52:53;;;;;;;1.33;1.23;;;29.70;44.60;;;30.04;30.46;94800.25;6177558;23;20158;-56
2022/09/13 08:55:30;;;;;;;2.17;1.10;;;29.50;44.20;;;29.96;30.22;94801.56;6176982;23;20276;-56
2022/09/13 08:58:02;;;;;;;1.90;1.30;;;29.40;43.30;;;29.96;30.33;94803.44;6176924;23;20185;-56
2022/09/13 09:00:33;;;;;;;10.33;1.30;;;29.40;44.10;;;30.06;31.46;94802.72;6177067;23;20264;-54
2022/09/13 09:03:11;;;;;;;1.53;1.43;;;29.40;44.70;;;30.16;31.04;94797.31;6176843;23;20166;-55
2022/09/13 09:05:46;;;;;;;1.60;1.50;;;29.50;44.50;;;30.22;30.27;94804.38;6176967;23;20700;-57
2022/09/13 09:08:18;;;;;;;1.47;1.30;;;29.50;43.60;;;30.14;30.41;94807.63;6176789;23;20168;-57
2022/09/13 09:10:48;;;;;;;1.70;1.60;;;29.50;43.40;;;29.80;30.52;94811.50;6177341;23;20170;-55
2022/09/13 09:13:18;;;;;;;1.60;1.50;;;29.20;42.20;;;29.38;30.74;94808.78;6176770;23;20244;-55
2022/09/13 09:15:47;;;;;;;1.57;1.47;;;28.90;43.50;;;29.01;31.13;94813.03;6176781;23;20165;-58
2022/09/13 09:18:18;;;;;;;1.50;1.40;;;28.60;44.30;;;28.58;31.47;94812.91;6176384;23;20448;-58
2022/09/13 09:20:47;;;;;;;2.70;1.10;;;28.20;44.00;;;28.22;31.79;94809.75;6177690;23;20158;-57
2022/09/13 09:23:17;;;;;;;1.83;1.50;;;27.80;44.60;;;27.93;32.36;94806.38;6176439;23;20412;-58
2022/09/13 09:25:46;;;;;;;1.67;1.57;;;27.50;45.00;;;27.68;32.57;94804.16;6177087;23;20451;-57
2022/09/13 09:28:14;;;;;;;1.53;1.30;;;27.20;45.20;;;27.42;32.30;94801.09;6176749;23;20397;-57
2022/09/13 09:30:49;;;;;;;1.50;1.40;;;27.00;45.80;;;27.23;32.52;94802.38;6176436;23;20397;-56
2022/09/13 09:33:33;;;;;;;3.93;2.10;;;26.80;45.50;;;26.87;32.74;94794.50;6176613;23;20742;-57
2022/09/13 09:36:03;;;;;;;7.03;2.27;;;26.50;45.80;;;26.48;33.90;94800.53;6176368;23;20925;-54
2022/09/13 09:38:40;;;;;;;3.17;2.27;;;26.10;47.00;;;26.15;34.43;94786.94;6176376;23;20437;-58
2022/09/13 09:41:16;;;;;;;2.13;2.00;;;25.70;47.70;;;25.92;35.16;94788.63;6176653;23;20501;-55
2022/09/13 09:43:48;;;;;;;5.10;1.80;;;25.50;48.30;;;25.84;35.49;94787.13;6176457;23;20804;-57
2022/09/13 09:46:16;;;;;;;2.07;1.87;;;25.30;49.20;;;25.80;35.44;94780.56;6176544;23;20397;-57
2022/09/13 09:48:46;;;;;;;9.00;2.20;;;25.20;49.20;;;25.74;35.52;94774.25;6176195;23;20440;-55
2022/09/13 09:51:14;;;;;;;2.17;2.00;;;25.20;49.20;;;25.69;35.53;94779.53;6176968;23;20833;-57
2022/09/13 09:53:46;;;;;;;5.23;2.00;;;25.20;49.70;;;25.62;35.68;94772.63;6177200;23;20782;-56
2022/09/13 09:56:23;;;;;;;2.33;2.13;;;25.10;49.60;;;25.53;35.59;94773.00;6177026;23;20385;-56
2022/09/13 09:58:51;;;;;;;2.23;1.70;;;25.00;50.60;;;25.52;35.87;94773.22;6176902;23;20448;-53
2022/09/13 10:01:24;;;;;;;5.50;3.93;;;25.00;50.20;;;25.62;35.99;94753.78;6176648;23;20409;-56
2022/09/13 10:03:55;;;;;;;2.60;2.40;;;25.00;50.60;;;25.75;36.45;94751.63;6176799;23;20490;-55
2022/09/13 10:06:24;;;;;;;2.63;1.60;;;25.10;50.40;;;25.93;36.21;94758.75;6176370;23;21005;-58
2022/09/13 10:08:57;;;;;;;3.63;1.80;;;25.30;50.40;;;26.08;35.65;94752.84;6176455;23;20822;-58
2022/09/13 10:11:38;;;;;;;2.40;2.30;;;25.40;50.80;;;26.25;35.61;94746.72;6176697;23;20397;-56
2022/09/13 10:14:05;;;;;;;2.07;1.97;;;25.60;50.40;;;26.30;35.51;94754.88;6176970;23;20425;-54
2022/09/13 10:16:32;;;;;;;2.60;2.50;;;25.70;49.50;;;26.34;35.39;94753.34;6176730;23;20404;-56
2022/09/13 10:19:24;;;;;;;10.27;2.03;;;25.70;49.60;;;26.48;34.93;94743.91;6177055;23;20448;-56
2022/09/13 10:22:02;;;;;;;1.77;1.47;;;25.80;49.50;;;26.55;34.45;94751.81;6177040;23;20467;-57
2022/09/13 10:24:29;;;;;;;3.47;2.10;;;25.90;48.20;;;26.44;34.08;94747.31;6177142;23;20845;-57
2022/09/13 10:26:58;;;;;;;1.70;1.60;;;25.90;48.20;;;26.31;34.83;94748.44;6176599;23;20492;-56
2022/09/13 10:29:26;;;;;;;1.97;1.87;;;25.80;48.50;;;26.28;35.35;94754.31;6176112;23;20417;-55
2022/09/13 10:31:54;;;;;;;1.70;1.60;;;25.80;49.40;;;26.32;35.28;94744.69;6178135;23;20417;-57